sensor_id;sensor_type;location;lat;lon;timestamp;P1;durP1;ratioP1;P2;durP2;ratioP2
7377;SDS011;3730;50.856;12.776;2024-03-02T00:00:15;41.33;;;25.57;;
7377;SDS011;3730;50.856;12.776;2024-03-02T00:02:41;39.37;;;25.20;;
7377;SDS011;3730;50.856;12.776;2024-03-02T00:05:08;39.67;;;24.20;;
7377;SDS011;3730;50.856;12.776;2024-03-02T00:07:36;41.13;;;25.43;;
7377;SDS011;3730;50.856;12.776;2024-03-02T00:10:07;39.53;;;25.20;;
7377;SDS011;3730;50.856;12.776;2024-03-02T00:12:35;46.50;;;26.67;;
7377;SDS011;3730;50.856;12.776;2024-03-02T00:15:01;38.23;;;23.47;;
7377;SDS011;3730;50.856;12.776;2024-03-02T00:17:27;40.10;;;25.17;;
7377;SDS011;3730;50.856;12.776;2024-03-02T00:19:54;38.80;;;25.40;;
7377;SDS011;3730;50.856;12.776;2024-03-02T00:22:20;38.53;;;23.40;;
7377;SDS011;3730;50.856;12.776;2024-03-02T00:24:46;38.27;;;23.43;;
7377;SDS011;3730;50.856;12.776;2024-03-02T00:27:12;39.57;;;24.00;;
7377;SDS011;3730;50.856;12.776;2024-03-02T00:29:40;40.23;;;24.50;;
7377;SDS011;3730;50.856;12.776;2024-03-02T00:32:11;41.23;;;25.13;;
7377;SDS011;3730;50.856;12.776;2024-03-02T00:34:38;40.47;;;25.47;;
7377;SDS011;3730;50.856;12.776;2024-03-02T00:37:04;41.17;;;25.53;;
7377;SDS011;3730;50.856;12.776;2024-03-02T00:39:30;39.93;;;24.80;;
7377;SDS011;3730;50.856;12.776;2024-03-02T00:41:56;43.07;;;25.83;;
7377;SDS011;3730;50.856;12.776;2024-03-02T00:44:22;36.77;;;24.37;;
7377;SDS011;3730;50.856;12.776;2024-03-02T00:46:49;43.67;;;24.63;;
7377;SDS011;3730;50.856;12.776;2024-03-02T00:49:20;39.87;;;23.93;;
7377;SDS011;3730;50.856;12.776;2024-03-02T00:51:47;38.23;;;23.73;;
7377;SDS011;3730;50.856;12.776;2024-03-02T00:54:14;37.60;;;24.23;;
7377;SDS011;3730;50.856;12.776;2024-03-02T00:56:41;40.30;;;23.50;;
7377;SDS011;3730;50.856;12.776;2024-03-02T00:59:07;38.00;;;22.90;;
7377;SDS011;3730;50.856;12.776;2024-03-02T01:01:34;32.97;;;21.40;;
7377;SDS011;3730;50.856;12.776;2024-03-02T01:04:00;35.27;;;22.33;;
7377;SDS011;3730;50.856;12.776;2024-03-02T01:06:26;33.10;;;21.23;;
7377;SDS011;3730;50.856;12.776;2024-03-02T01:08:52;32.13;;;21.37;;
7377;SDS011;3730;50.856;12.776;2024-03-02T01:11:18;29.87;;;20.23;;
7377;SDS011;3730;50.856;12.776;2024-03-02T01:13:46;30.03;;;20.00;;
7377;SDS011;3730;50.856;12.776;2024-03-02T01:16:12;30.43;;;20.07;;
7377;SDS011;3730;50.856;12.776;2024-03-02T01:18:38;30.23;;;19.27;;
7377;SDS011;3730;50.856;12.776;2024-03-02T01:21:04;30.07;;;19.70;;
7377;SDS011;3730;50.856;12.776;2024-03-02T01:23:30;31.07;;;19.87;;
7377;SDS011;3730;50.856;12.776;2024-03-02T01:25:56;32.73;;;20.60;;
7377;SDS011;3730;50.856;12.776;2024-03-02T01:28:22;34.83;;;21.40;;
7377;SDS011;3730;50.856;12.776;2024-03-02T01:30:48;30.80;;;22.00;;
7377;SDS011;3730;50.856;12.776;2024-03-02T01:33:16;31.57;;;20.73;;
7377;SDS011;3730;50.856;12.776;2024-03-02T01:35:42;31.27;;;21.37;;
7377;SDS011;3730;50.856;12.776;2024-03-02T01:38:09;33.37;;;21.03;;
7377;SDS011;3730;50.856;12.776;2024-03-02T01:40:35;31.73;;;21.63;;
7377;SDS011;3730;50.856;12.776;2024-03-02T01:43:01;34.70;;;22.57;;
7377;SDS011;3730;50.856;12.776;2024-03-02T01:45:28;34.23;;;23.17;;
7377;SDS011;3730;50.856;12.776;2024-03-02T01:47:54;39.30;;;23.43;;
7377;SDS011;3730;50.856;12.776;2024-03-02T01:50:29;34.57;;;22.57;;
7377;SDS011;3730;50.856;12.776;2024-03-02T01:52:56;32.27;;;22.47;;
7377;SDS011;3730;50.856;12.776;2024-03-02T01:55:22;34.17;;;22.77;;
7377;SDS011;3730;50.856;12.776;2024-03-02T01:57:48;35.37;;;22.57;;
7377;SDS011;3730;50.856;12.776;2024-03-02T02:00:19;34.07;;;22.53;;
7377;SDS011;3730;50.856;12.776;2024-03-02T02:02:46;37.47;;;24.33;;
7377;SDS011;3730;50.856;12.776;2024-03-02T02:05:12;34.23;;;23.27;;
7377;SDS011;3730;50.856;12.776;2024-03-02T02:07:39;37.70;;;23.20;;
7377;SDS011;3730;50.856;12.776;2024-03-02T02:10:05;35.50;;;22.70;;
7377;SDS011;3730;50.856;12.776;2024-03-02T02:12:31;33.07;;;22.10;;
7377;SDS011;3730;50.856;12.776;2024-03-02T02:14:57;33.30;;;22.70;;
7377;SDS011;3730;50.856;12.776;2024-03-02T02:17:24;31.70;;;21.87;;
7377;SDS011;3730;50.856;12.776;2024-03-02T02:19:50;29.70;;;21.33;;
7377;SDS011;3730;50.856;12.776;2024-03-02T02:22:16;36.43;;;22.30;;
7377;SDS011;3730;50.856;12.776;2024-03-02T02:24:41;35.80;;;23.37;;
7377;SDS011;3730;50.856;12.776;2024-03-02T02:27:08;32.63;;;22.43;;
7377;SDS011;3730;50.856;12.776;2024-03-02T02:29:34;33.53;;;21.83;;
7377;SDS011;3730;50.856;12.776;2024-03-02T02:32:00;30.27;;;20.97;;
7377;SDS011;3730;50.856;12.776;2024-03-02T02:34:27;28.83;;;21.37;;
7377;SDS011;3730;50.856;12.776;2024-03-02T02:36:53;31.67;;;20.87;;
7377;SDS011;3730;50.856;12.776;2024-03-02T02:39:20;31.10;;;21.03;;
7377;SDS011;3730;50.856;12.776;2024-03-02T02:41:47;34.37;;;22.40;;
7377;SDS011;3730;50.856;12.776;2024-03-02T02:44:13;32.50;;;22.73;;
7377;SDS011;3730;50.856;12.776;2024-03-02T02:46:40;34.43;;;23.27;;
7377;SDS011;3730;50.856;12.776;2024-03-02T02:49:06;40.80;;;24.80;;
7377;SDS011;3730;50.856;12.776;2024-03-02T02:51:32;35.67;;;23.40;;
7377;SDS011;3730;50.856;12.776;2024-03-02T02:53:58;35.00;;;22.07;;
7377;SDS011;3730;50.856;12.776;2024-03-02T02:56:24;35.10;;;22.70;;
7377;SDS011;3730;50.856;12.776;2024-03-02T02:58:50;37.13;;;23.13;;
7377;SDS011;3730;50.856;12.776;2024-03-02T03:01:16;34.23;;;23.03;;
7377;SDS011;3730;50.856;12.776;2024-03-02T03:03:43;35.97;;;23.13;;
7377;SDS011;3730;50.856;12.776;2024-03-02T03:06:09;36.03;;;23.50;;
7377;SDS011;3730;50.856;12.776;2024-03-02T03:08:35;34.10;;;23.10;;
7377;SDS011;3730;50.856;12.776;2024-03-02T03:11:01;40.00;;;25.63;;
7377;SDS011;3730;50.856;12.776;2024-03-02T03:13:27;36.53;;;24.73;;
7377;SDS011;3730;50.856;12.776;2024-03-02T03:15:53;39.07;;;24.97;;
7377;SDS011;3730;50.856;12.776;2024-03-02T03:18:19;41.43;;;25.40;;
7377;SDS011;3730;50.856;12.776;2024-03-02T03:20:45;37.97;;;24.47;;
7377;SDS011;3730;50.856;12.776;2024-03-02T03:23:11;37.47;;;24.23;;
7377;SDS011;3730;50.856;12.776;2024-03-02T03:25:40;37.10;;;24.57;;
7377;SDS011;3730;50.856;12.776;2024-03-02T03:28:07;36.40;;;23.67;;
7377;SDS011;3730;50.856;12.776;2024-03-02T03:30:34;37.43;;;24.07;;
7377;SDS011;3730;50.856;12.776;2024-03-02T03:33:00;43.30;;;24.47;;
7377;SDS011;3730;50.856;12.776;2024-03-02T03:35:26;36.03;;;23.77;;
7377;SDS011;3730;50.856;12.776;2024-03-02T03:37:52;33.93;;;23.40;;
7377;SDS011;3730;50.856;12.776;2024-03-02T03:40:18;35.97;;;23.13;;
7377;SDS011;3730;50.856;12.776;2024-03-02T03:42:45;34.67;;;22.30;;
7377;SDS011;3730;50.856;12.776;2024-03-02T03:45:11;33.77;;;22.80;;
7377;SDS011;3730;50.856;12.776;2024-03-02T03:47:37;37.70;;;24.30;;
7377;SDS011;3730;50.856;12.776;2024-03-02T03:50:03;35.63;;;22.47;;
7377;SDS011;3730;50.856;12.776;2024-03-02T03:52:31;36.07;;;22.03;;
7377;SDS011;3730;50.856;12.776;2024-03-02T03:54:58;34.40;;;23.07;;
7377;SDS011;3730;50.856;12.776;2024-03-02T03:57:24;35.60;;;22.80;;
7377;SDS011;3730;50.856;12.776;2024-03-02T03:59:51;35.23;;;22.07;;
7377;SDS011;3730;50.856;12.776;2024-03-02T04:02:17;31.73;;;22.50;;
7377;SDS011;3730;50.856;12.776;2024-03-02T04:04:43;35.33;;;22.37;;
7377;SDS011;3730;50.856;12.776;2024-03-02T04:07:09;32.53;;;21.33;;
7377;SDS011;3730;50.856;12.776;2024-03-02T04:09:35;30.97;;;21.33;;
7377;SDS011;3730;50.856;12.776;2024-03-02T04:12:01;31.47;;;21.30;;
7377;SDS011;3730;50.856;12.776;2024-03-02T04:14:27;34.03;;;22.23;;
7377;SDS011;3730;50.856;12.776;2024-03-02T04:16:53;29.23;;;20.43;;
7377;SDS011;3730;50.856;12.776;2024-03-02T04:19:18;29.13;;;20.60;;
7377;SDS011;3730;50.856;12.776;2024-03-02T04:21:44;30.07;;;19.53;;
7377;SDS011;3730;50.856;12.776;2024-03-02T04:24:10;28.20;;;19.27;;
7377;SDS011;3730;50.856;12.776;2024-03-02T04:26:36;29.17;;;19.47;;
7377;SDS011;3730;50.856;12.776;2024-03-02T04:29:02;30.23;;;19.93;;
7377;SDS011;3730;50.856;12.776;2024-03-02T04:31:28;26.50;;;19.23;;
7377;SDS011;3730;50.856;12.776;2024-03-02T04:33:54;26.37;;;18.70;;
7377;SDS011;3730;50.856;12.776;2024-03-02T04:36:20;24.87;;;18.90;;
7377;SDS011;3730;50.856;12.776;2024-03-02T04:38:46;29.17;;;18.70;;
7377;SDS011;3730;50.856;12.776;2024-03-02T04:41:12;31.63;;;19.73;;
7377;SDS011;3730;50.856;12.776;2024-03-02T04:43:38;28.67;;;19.73;;
7377;SDS011;3730;50.856;12.776;2024-03-02T04:46:05;32.10;;;19.23;;
7377;SDS011;3730;50.856;12.776;2024-03-02T04:48:32;30.20;;;19.90;;
7377;SDS011;3730;50.856;12.776;2024-03-02T04:50:59;32.20;;;19.87;;
7377;SDS011;3730;50.856;12.776;2024-03-02T04:53:25;34.10;;;20.77;;
7377;SDS011;3730;50.856;12.776;2024-03-02T04:55:51;28.73;;;20.70;;
7377;SDS011;3730;50.856;12.776;2024-03-02T04:58:52;31.07;;;20.47;;
7377;SDS011;3730;50.856;12.776;2024-03-02T05:01:18;28.67;;;19.33;;
7377;SDS011;3730;50.856;12.776;2024-03-02T05:03:44;30.30;;;19.47;;
7377;SDS011;3730;50.856;12.776;2024-03-02T05:06:10;33.97;;;20.93;;
7377;SDS011;3730;50.856;12.776;2024-03-02T05:08:36;32.43;;;22.27;;
7377;SDS011;3730;50.856;12.776;2024-03-02T05:11:02;32.97;;;23.00;;
7377;SDS011;3730;50.856;12.776;2024-03-02T05:13:47;31.13;;;21.40;;
7377;SDS011;3730;50.856;12.776;2024-03-02T05:16:13;33.03;;;21.90;;
7377;SDS011;3730;50.856;12.776;2024-03-02T05:18:39;29.93;;;21.23;;
7377;SDS011;3730;50.856;12.776;2024-03-02T05:21:05;29.93;;;20.90;;
7377;SDS011;3730;50.856;12.776;2024-03-02T05:23:31;30.27;;;21.03;;
7377;SDS011;3730;50.856;12.776;2024-03-02T05:25:57;37.17;;;21.43;;
7377;SDS011;3730;50.856;12.776;2024-03-02T05:28:23;33.93;;;22.83;;
7377;SDS011;3730;50.856;12.776;2024-03-02T05:30:49;33.60;;;22.50;;
7377;SDS011;3730;50.856;12.776;2024-03-02T05:33:15;32.13;;;21.40;;
7377;SDS011;3730;50.856;12.776;2024-03-02T05:35:41;33.83;;;21.87;;
7377;SDS011;3730;50.856;12.776;2024-03-02T05:38:07;34.40;;;21.23;;
7377;SDS011;3730;50.856;12.776;2024-03-02T05:40:33;34.03;;;22.67;;
7377;SDS011;3730;50.856;12.776;2024-03-02T05:42:59;31.30;;;21.63;;
7377;SDS011;3730;50.856;12.776;2024-03-02T05:45:25;36.27;;;21.80;;
7377;SDS011;3730;50.856;12.776;2024-03-02T05:47:51;34.97;;;21.47;;
7377;SDS011;3730;50.856;12.776;2024-03-02T05:50:17;34.60;;;22.20;;
7377;SDS011;3730;50.856;12.776;2024-03-02T05:52:45;35.83;;;22.67;;
7377;SDS011;3730;50.856;12.776;2024-03-02T05:55:11;37.27;;;21.80;;
7377;SDS011;3730;50.856;12.776;2024-03-02T05:57:37;33.73;;;20.70;;
7377;SDS011;3730;50.856;12.776;2024-03-02T06:00:09;32.60;;;21.37;;
7377;SDS011;3730;50.856;12.776;2024-03-02T06:02:38;32.83;;;20.77;;
7377;SDS011;3730;50.856;12.776;2024-03-02T06:05:04;34.87;;;21.27;;
7377;SDS011;3730;50.856;12.776;2024-03-02T06:07:32;30.60;;;21.30;;
7377;SDS011;3730;50.856;12.776;2024-03-02T06:09:58;30.80;;;20.10;;
7377;SDS011;3730;50.856;12.776;2024-03-02T06:12:24;36.33;;;22.73;;
7377;SDS011;3730;50.856;12.776;2024-03-02T06:14:50;34.07;;;21.63;;
7377;SDS011;3730;50.856;12.776;2024-03-02T06:17:15;32.43;;;20.40;;
7377;SDS011;3730;50.856;12.776;2024-03-02T06:19:41;28.33;;;19.73;;
7377;SDS011;3730;50.856;12.776;2024-03-02T06:22:08;30.90;;;19.90;;
7377;SDS011;3730;50.856;12.776;2024-03-02T06:24:35;28.20;;;18.70;;
7377;SDS011;3730;50.856;12.776;2024-03-02T06:27:01;27.80;;;19.30;;
7377;SDS011;3730;50.856;12.776;2024-03-02T06:29:27;31.37;;;20.67;;
7377;SDS011;3730;50.856;12.776;2024-03-02T06:31:53;31.00;;;20.23;;
7377;SDS011;3730;50.856;12.776;2024-03-02T06:34:19;33.33;;;20.27;;
7377;SDS011;3730;50.856;12.776;2024-03-02T06:36:45;32.50;;;20.30;;
7377;SDS011;3730;50.856;12.776;2024-03-02T06:39:11;31.20;;;20.13;;
7377;SDS011;3730;50.856;12.776;2024-03-02T06:41:37;34.03;;;19.90;;
7377;SDS011;3730;50.856;12.776;2024-03-02T06:44:03;28.07;;;19.10;;
7377;SDS011;3730;50.856;12.776;2024-03-02T06:46:30;29.37;;;19.30;;
7377;SDS011;3730;50.856;12.776;2024-03-02T06:48:56;32.37;;;20.47;;
7377;SDS011;3730;50.856;12.776;2024-03-02T06:51:22;32.13;;;20.00;;
7377;SDS011;3730;50.856;12.776;2024-03-02T06:53:48;30.83;;;20.87;;
7377;SDS011;3730;50.856;12.776;2024-03-02T06:56:14;28.13;;;18.43;;
7377;SDS011;3730;50.856;12.776;2024-03-02T06:58:40;25.60;;;18.13;;
7377;SDS011;3730;50.856;12.776;2024-03-02T07:01:07;27.40;;;19.33;;
7377;SDS011;3730;50.856;12.776;2024-03-02T07:03:34;27.17;;;18.20;;
7377;SDS011;3730;50.856;12.776;2024-03-02T07:06:00;27.37;;;18.83;;
7377;SDS011;3730;50.856;12.776;2024-03-02T07:08:26;28.07;;;18.27;;
7377;SDS011;3730;50.856;12.776;2024-03-02T07:10:52;28.17;;;17.43;;
7377;SDS011;3730;50.856;12.776;2024-03-02T07:13:18;26.57;;;18.10;;
7377;SDS011;3730;50.856;12.776;2024-03-02T07:15:45;29.03;;;18.23;;
7377;SDS011;3730;50.856;12.776;2024-03-02T07:18:29;24.83;;;17.83;;
7377;SDS011;3730;50.856;12.776;2024-03-02T07:20:56;24.40;;;15.93;;
7377;SDS011;3730;50.856;12.776;2024-03-02T07:23:24;23.37;;;16.27;;
7377;SDS011;3730;50.856;12.776;2024-03-02T07:25:52;22.80;;;15.73;;
7377;SDS011;3730;50.856;12.776;2024-03-02T07:28:24;21.73;;;15.67;;
7377;SDS011;3730;50.856;12.776;2024-03-02T07:31:00;19.27;;;14.37;;
7377;SDS011;3730;50.856;12.776;2024-03-02T07:33:26;20.27;;;14.77;;
7377;SDS011;3730;50.856;12.776;2024-03-02T07:35:52;21.03;;;15.10;;
7377;SDS011;3730;50.856;12.776;2024-03-02T07:38:19;19.43;;;14.90;;
7377;SDS011;3730;50.856;12.776;2024-03-02T07:40:46;19.47;;;13.80;;
7377;SDS011;3730;50.856;12.776;2024-03-02T07:43:12;20.63;;;15.23;;
7377;SDS011;3730;50.856;12.776;2024-03-02T07:45:38;23.97;;;15.63;;
7377;SDS011;3730;50.856;12.776;2024-03-02T07:48:04;25.40;;;15.60;;
7377;SDS011;3730;50.856;12.776;2024-03-02T07:50:30;24.63;;;15.57;;
7377;SDS011;3730;50.856;12.776;2024-03-02T07:52:56;20.53;;;15.17;;
7377;SDS011;3730;50.856;12.776;2024-03-02T07:55:22;25.50;;;15.97;;
7377;SDS011;3730;50.856;12.776;2024-03-02T07:57:50;23.40;;;15.83;;
7377;SDS011;3730;50.856;12.776;2024-03-02T08:00:16;23.37;;;16.80;;
7377;SDS011;3730;50.856;12.776;2024-03-02T08:02:42;22.90;;;15.80;;
7377;SDS011;3730;50.856;12.776;2024-03-02T08:05:08;27.50;;;15.73;;
7377;SDS011;3730;50.856;12.776;2024-03-02T08:07:34;20.50;;;15.30;;
7377;SDS011;3730;50.856;12.776;2024-03-02T08:10:00;22.17;;;16.83;;
7377;SDS011;3730;50.856;12.776;2024-03-02T08:12:26;24.70;;;18.63;;
7377;SDS011;3730;50.856;12.776;2024-03-02T08:14:52;20.47;;;15.87;;
7377;SDS011;3730;50.856;12.776;2024-03-02T08:17:18;20.93;;;15.80;;
7377;SDS011;3730;50.856;12.776;2024-03-02T08:19:44;22.23;;;16.13;;
7377;SDS011;3730;50.856;12.776;2024-03-02T08:22:10;22.80;;;16.17;;
7377;SDS011;3730;50.856;12.776;2024-03-02T08:24:37;19.90;;;15.00;;
7377;SDS011;3730;50.856;12.776;2024-03-02T08:27:03;20.83;;;15.97;;
7377;SDS011;3730;50.856;12.776;2024-03-02T08:29:29;24.50;;;16.80;;
7377;SDS011;3730;50.856;12.776;2024-03-02T08:31:56;22.60;;;17.70;;
7377;SDS011;3730;50.856;12.776;2024-03-02T08:34:22;21.53;;;15.90;;
7377;SDS011;3730;50.856;12.776;2024-03-02T08:36:48;23.80;;;16.10;;
7377;SDS011;3730;50.856;12.776;2024-03-02T08:39:15;18.80;;;13.90;;
7377;SDS011;3730;50.856;12.776;2024-03-02T08:41:41;23.80;;;15.43;;
7377;SDS011;3730;50.856;12.776;2024-03-02T08:44:08;22.23;;;15.70;;
7377;SDS011;3730;50.856;12.776;2024-03-02T08:46:34;20.87;;;15.03;;
7377;SDS011;3730;50.856;12.776;2024-03-02T08:49:00;23.50;;;15.40;;
7377;SDS011;3730;50.856;12.776;2024-03-02T08:51:26;20.00;;;14.30;;
7377;SDS011;3730;50.856;12.776;2024-03-02T08:53:52;18.50;;;14.40;;
7377;SDS011;3730;50.856;12.776;2024-03-02T08:56:18;21.83;;;15.50;;
7377;SDS011;3730;50.856;12.776;2024-03-02T08:58:46;25.40;;;15.70;;
7377;SDS011;3730;50.856;12.776;2024-03-02T09:01:12;22.97;;;15.27;;
7377;SDS011;3730;50.856;12.776;2024-03-02T09:03:38;22.47;;;15.63;;
7377;SDS011;3730;50.856;12.776;2024-03-02T09:06:04;20.80;;;14.93;;
7377;SDS011;3730;50.856;12.776;2024-03-02T09:08:30;19.80;;;14.73;;
7377;SDS011;3730;50.856;12.776;2024-03-02T09:10:56;21.00;;;14.90;;
7377;SDS011;3730;50.856;12.776;2024-03-02T09:13:26;19.40;;;13.73;;
7377;SDS011;3730;50.856;12.776;2024-03-02T09:15:52;27.70;;;15.70;;
7377;SDS011;3730;50.856;12.776;2024-03-02T09:18:18;21.00;;;14.77;;
7377;SDS011;3730;50.856;12.776;2024-03-02T09:20:47;21.87;;;15.60;;
7377;SDS011;3730;50.856;12.776;2024-03-02T09:23:13;20.10;;;14.80;;
7377;SDS011;3730;50.856;12.776;2024-03-02T09:25:39;18.63;;;14.80;;
7377;SDS011;3730;50.856;12.776;2024-03-02T09:28:05;19.80;;;14.40;;
7377;SDS011;3730;50.856;12.776;2024-03-02T09:30:32;22.20;;;15.07;;
7377;SDS011;3730;50.856;12.776;2024-03-02T09:32:58;21.23;;;15.23;;
7377;SDS011;3730;50.856;12.776;2024-03-02T09:35:24;21.73;;;15.13;;
7377;SDS011;3730;50.856;12.776;2024-03-02T09:37:50;20.60;;;14.77;;
7377;SDS011;3730;50.856;12.776;2024-03-02T09:40:16;22.73;;;16.20;;
7377;SDS011;3730;50.856;12.776;2024-03-02T09:42:42;25.13;;;16.10;;
7377;SDS011;3730;50.856;12.776;2024-03-02T09:45:09;24.20;;;16.23;;
7377;SDS011;3730;50.856;12.776;2024-03-02T09:47:35;20.87;;;15.27;;
7377;SDS011;3730;50.856;12.776;2024-03-02T09:50:01;23.20;;;16.67;;
7377;SDS011;3730;50.856;12.776;2024-03-02T09:52:28;21.60;;;16.27;;
7377;SDS011;3730;50.856;12.776;2024-03-02T09:54:56;21.07;;;15.27;;
7377;SDS011;3730;50.856;12.776;2024-03-02T09:57:22;22.20;;;15.83;;
7377;SDS011;3730;50.856;12.776;2024-03-02T09:59:48;21.43;;;15.03;;
7377;SDS011;3730;50.856;12.776;2024-03-02T10:02:14;20.73;;;13.93;;
7377;SDS011;3730;50.856;12.776;2024-03-02T10:04:39;19.97;;;13.63;;
7377;SDS011;3730;50.856;12.776;2024-03-02T10:07:16;17.93;;;13.00;;
7377;SDS011;3730;50.856;12.776;2024-03-02T10:09:42;17.13;;;12.73;;
7377;SDS011;3730;50.856;12.776;2024-03-02T10:12:11;16.67;;;12.37;;
7377;SDS011;3730;50.856;12.776;2024-03-02T10:14:38;15.57;;;11.93;;
7377;SDS011;3730;50.856;12.776;2024-03-02T10:17:08;16.97;;;12.57;;
7377;SDS011;3730;50.856;12.776;2024-03-02T10:19:34;16.17;;;11.33;;
7377;SDS011;3730;50.856;12.776;2024-03-02T10:22:02;15.80;;;11.20;;
7377;SDS011;3730;50.856;12.776;2024-03-02T10:24:34;16.27;;;11.60;;
7377;SDS011;3730;50.856;12.776;2024-03-02T10:27:02;16.87;;;10.60;;
7377;SDS011;3730;50.856;12.776;2024-03-02T10:29:32;13.73;;;10.93;;
7377;SDS011;3730;50.856;12.776;2024-03-02T10:31:58;14.67;;;10.13;;
7377;SDS011;3730;50.856;12.776;2024-03-02T10:34:28;13.53;;;10.60;;
7377;SDS011;3730;50.856;12.776;2024-03-02T10:36:54;17.57;;;12.03;;
7377;SDS011;3730;50.856;12.776;2024-03-02T10:39:20;15.17;;;11.67;;
7377;SDS011;3730;50.856;12.776;2024-03-02T10:41:46;16.17;;;10.53;;
7377;SDS011;3730;50.856;12.776;2024-03-02T10:44:15;14.20;;;10.50;;
7377;SDS011;3730;50.856;12.776;2024-03-02T10:46:41;17.30;;;10.60;;
7377;SDS011;3730;50.856;12.776;2024-03-02T10:49:09;14.27;;;9.60;;
7377;SDS011;3730;50.856;12.776;2024-03-02T10:51:35;12.07;;;9.77;;
7377;SDS011;3730;50.856;12.776;2024-03-02T10:54:02;11.87;;;9.07;;
7377;SDS011;3730;50.856;12.776;2024-03-02T10:56:32;13.47;;;9.10;;
7377;SDS011;3730;50.856;12.776;2024-03-02T10:59:01;13.60;;;9.50;;
7377;SDS011;3730;50.856;12.776;2024-03-02T11:01:29;10.57;;;8.80;;
7377;SDS011;3730;50.856;12.776;2024-03-02T11:03:55;9.97;;;7.37;;
7377;SDS011;3730;50.856;12.776;2024-03-02T11:06:22;9.00;;;6.10;;
7377;SDS011;3730;50.856;12.776;2024-03-02T11:08:48;7.63;;;5.90;;
7377;SDS011;3730;50.856;12.776;2024-03-02T11:11:15;8.63;;;5.43;;
7377;SDS011;3730;50.856;12.776;2024-03-02T11:13:46;7.13;;;5.67;;
7377;SDS011;3730;50.856;12.776;2024-03-02T11:16:36;5.77;;;4.70;;
7377;SDS011;3730;50.856;12.776;2024-03-02T11:19:04;6.03;;;3.03;;
7377;SDS011;3730;50.856;12.776;2024-03-02T11:21:32;4.40;;;2.90;;
7377;SDS011;3730;50.856;12.776;2024-03-02T11:23:58;3.67;;;2.93;;
7377;SDS011;3730;50.856;12.776;2024-03-02T11:26:24;5.60;;;3.50;;
7377;SDS011;3730;50.856;12.776;2024-03-02T11:28:50;6.40;;;5.17;;
7377;SDS011;3730;50.856;12.776;2024-03-02T11:31:16;8.53;;;5.10;;
7377;SDS011;3730;50.856;12.776;2024-03-02T11:33:42;7.10;;;5.00;;
7377;SDS011;3730;50.856;12.776;2024-03-02T11:36:08;11.03;;;7.10;;
7377;SDS011;3730;50.856;12.776;2024-03-02T11:38:35;10.60;;;8.57;;
7377;SDS011;3730;50.856;12.776;2024-03-02T11:41:02;12.40;;;8.80;;
7377;SDS011;3730;50.856;12.776;2024-03-02T11:43:29;12.93;;;8.77;;
7377;SDS011;3730;50.856;12.776;2024-03-02T11:45:59;13.17;;;7.83;;
7377;SDS011;3730;50.856;12.776;2024-03-02T11:48:25;10.40;;;7.97;;
7377;SDS011;3730;50.856;12.776;2024-03-02T11:50:51;11.03;;;8.30;;
7377;SDS011;3730;50.856;12.776;2024-03-02T11:53:18;11.70;;;8.00;;
7377;SDS011;3730;50.856;12.776;2024-03-02T11:55:45;9.83;;;7.43;;
7377;SDS011;3730;50.856;12.776;2024-03-02T11:58:14;11.43;;;7.33;;
7377;SDS011;3730;50.856;12.776;2024-03-02T12:00:45;10.53;;;7.70;;
7377;SDS011;3730;50.856;12.776;2024-03-02T12:03:12;10.27;;;7.77;;
7377;SDS011;3730;50.856;12.776;2024-03-02T12:05:38;8.17;;;6.77;;
7377;SDS011;3730;50.856;12.776;2024-03-02T12:08:07;9.10;;;7.00;;
7377;SDS011;3730;50.856;12.776;2024-03-02T12:10:34;6.57;;;5.83;;
7377;SDS011;3730;50.856;12.776;2024-03-02T12:13:04;7.27;;;6.03;;
7377;SDS011;3730;50.856;12.776;2024-03-02T12:15:32;12.97;;;5.93;;
7377;SDS011;3730;50.856;12.776;2024-03-02T12:17:59;7.70;;;5.77;;
7377;SDS011;3730;50.856;12.776;2024-03-02T12:20:26;8.23;;;5.13;;
7377;SDS011;3730;50.856;12.776;2024-03-02T12:22:54;7.10;;;4.00;;
7377;SDS011;3730;50.856;12.776;2024-03-02T12:25:20;10.17;;;4.30;;
7377;SDS011;3730;50.856;12.776;2024-03-02T12:27:47;9.83;;;4.30;;
7377;SDS011;3730;50.856;12.776;2024-03-02T12:30:16;9.63;;;5.30;;
7377;SDS011;3730;50.856;12.776;2024-03-02T12:32:42;9.70;;;4.77;;
7377;SDS011;3730;50.856;12.776;2024-03-02T12:35:09;9.33;;;5.77;;
7377;SDS011;3730;50.856;12.776;2024-03-02T12:37:46;9.57;;;5.10;;
7377;SDS011;3730;50.856;12.776;2024-03-02T12:40:12;12.30;;;5.40;;
7377;SDS011;3730;50.856;12.776;2024-03-02T12:42:39;6.97;;;4.77;;
7377;SDS011;3730;50.856;12.776;2024-03-02T12:45:07;12.93;;;5.93;;
7377;SDS011;3730;50.856;12.776;2024-03-02T12:47:33;11.37;;;5.77;;
7377;SDS011;3730;50.856;12.776;2024-03-02T12:49:59;10.80;;;5.50;;
7377;SDS011;3730;50.856;12.776;2024-03-02T12:52:25;9.43;;;5.37;;
7377;SDS011;3730;50.856;12.776;2024-03-02T12:54:51;7.50;;;6.03;;
7377;SDS011;3730;50.856;12.776;2024-03-02T12:57:22;8.47;;;6.30;;
7377;SDS011;3730;50.856;12.776;2024-03-02T12:59:50;8.13;;;6.30;;
7377;SDS011;3730;50.856;12.776;2024-03-02T13:02:17;10.33;;;6.30;;
7377;SDS011;3730;50.856;12.776;2024-03-02T13:04:43;6.80;;;5.40;;
7377;SDS011;3730;50.856;12.776;2024-03-02T13:07:10;8.53;;;6.10;;
7377;SDS011;3730;50.856;12.776;2024-03-02T13:09:38;9.30;;;5.87;;
7377;SDS011;3730;50.856;12.776;2024-03-02T13:12:04;6.67;;;5.20;;
7377;SDS011;3730;50.856;12.776;2024-03-02T13:14:35;8.23;;;5.33;;
7377;SDS011;3730;50.856;12.776;2024-03-02T13:17:01;9.37;;;5.80;;
7377;SDS011;3730;50.856;12.776;2024-03-02T13:19:30;8.20;;;5.73;;
7377;SDS011;3730;50.856;12.776;2024-03-02T13:21:56;11.77;;;5.83;;
7377;SDS011;3730;50.856;12.776;2024-03-02T13:24:23;12.33;;;5.73;;
7377;SDS011;3730;50.856;12.776;2024-03-02T13:26:54;12.90;;;5.80;;
7377;SDS011;3730;50.856;12.776;2024-03-02T13:29:22;11.83;;;5.33;;
7377;SDS011;3730;50.856;12.776;2024-03-02T13:31:48;15.03;;;6.70;;
7377;SDS011;3730;50.856;12.776;2024-03-02T13:34:14;11.90;;;8.30;;
7377;SDS011;3730;50.856;12.776;2024-03-02T13:36:40;14.50;;;6.47;;
7377;SDS011;3730;50.856;12.776;2024-03-02T13:39:06;10.97;;;6.00;;
7377;SDS011;3730;50.856;12.776;2024-03-02T13:41:35;10.67;;;6.13;;
7377;SDS011;3730;50.856;12.776;2024-03-02T13:44:01;11.00;;;6.37;;
7377;SDS011;3730;50.856;12.776;2024-03-02T13:46:27;12.07;;;6.33;;
7377;SDS011;3730;50.856;12.776;2024-03-02T13:48:53;9.43;;;6.30;;
7377;SDS011;3730;50.856;12.776;2024-03-02T13:51:20;12.83;;;7.57;;
7377;SDS011;3730;50.856;12.776;2024-03-02T13:53:46;10.60;;;6.37;;
7377;SDS011;3730;50.856;12.776;2024-03-02T13:56:12;12.77;;;5.87;;
7377;SDS011;3730;50.856;12.776;2024-03-02T13:58:38;13.90;;;6.10;;
7377;SDS011;3730;50.856;12.776;2024-03-02T14:01:04;8.43;;;4.80;;
7377;SDS011;3730;50.856;12.776;2024-03-02T14:03:30;10.13;;;5.10;;
7377;SDS011;3730;50.856;12.776;2024-03-02T14:05:56;9.23;;;4.80;;
7377;SDS011;3730;50.856;12.776;2024-03-02T14:08:23;8.40;;;5.23;;
7377;SDS011;3730;50.856;12.776;2024-03-02T14:10:49;7.30;;;4.33;;
7377;SDS011;3730;50.856;12.776;2024-03-02T14:13:15;7.90;;;4.30;;
7377;SDS011;3730;50.856;12.776;2024-03-02T14:15:41;7.20;;;3.77;;
7377;SDS011;3730;50.856;12.776;2024-03-02T14:18:08;8.40;;;3.97;;
7377;SDS011;3730;50.856;12.776;2024-03-02T14:20:36;8.63;;;4.43;;
7377;SDS011;3730;50.856;12.776;2024-03-02T14:23:02;7.37;;;4.50;;
7377;SDS011;3730;50.856;12.776;2024-03-02T14:25:29;7.93;;;4.30;;
7377;SDS011;3730;50.856;12.776;2024-03-02T14:27:58;7.57;;;4.53;;
7377;SDS011;3730;50.856;12.776;2024-03-02T14:30:24;8.33;;;4.90;;
7377;SDS011;3730;50.856;12.776;2024-03-02T14:32:50;10.13;;;4.70;;
7377;SDS011;3730;50.856;12.776;2024-03-02T14:35:16;8.07;;;4.80;;
7377;SDS011;3730;50.856;12.776;2024-03-02T14:37:42;8.33;;;4.60;;